Time;durP1;ratioP1;P1;durP2;ratioP2;P2;SDS_P1;SDS_P2;PMS_P1;PMS_P2;Temp;Humidity;BMP_temperature;BMP_pressure;BME280_temperature;BME280_humidity;BME280_pressure;Samples;Min_cycle;Max_cycle;Signal;HPM_P1;HPM_P2
2022/03/20 00:00:14;;;;;;;23.43;16.13;;;;;;;4.89;100.00;100492.34;4980845;28;20226;-78
2022/03/20 00:02:47;;;;;;;22.77;15.27;;;;;;;4.98;100.00;100491.31;4982048;28;20269;-78
2022/03/20 00:05:17;;;;;;;22.10;14.37;;;;;;;5.13;100.00;100483.13;5021132;28;20215;-77
2022/03/20 00:07:46;;;;;;;23.97;15.97;;;;;;;4.99;100.00;100482.53;4981509;28;20269;-78
2022/03/20 00:10:15;;;;;;;22.00;15.10;;;;;;;5.10;100.00;100476.16;5068790;28;20246;-78
2022/03/20 00:12:44;;;;;;;24.33;15.77;;;;;;;5.09;98.89;100473.56;5025956;28;20208;-78
2022/03/20 00:15:14;;;;;;;22.07;15.83;;;;;;;5.19;98.33;100472.47;5042302;28;20200;-77
2022/03/20 00:17:44;;;;;;;19.90;14.97;;;;;;;5.17;98.50;100461.16;5074517;28;20230;-78
2022/03/20 00:20:15;;;;;;;20.70;14.73;;;;;;;5.18;97.23;100466.38;5049046;28;20243;-78
2022/03/20 00:22:43;;;;;;;24.27;15.30;;;;;;;5.04;98.30;100463.19;5042510;28;20201;-78
2022/03/20 00:25:15;;;;;;;22.93;14.63;;;;;;;5.10;96.63;100452.53;5040612;28;20229;-78
2022/03/20 00:27:43;;;;;;;21.37;14.20;;;;;;;5.17;96.67;100448.03;4972311;28;20238;-78
2022/03/20 00:30:14;;;;;;;22.60;14.93;;;;;;;5.03;97.04;100458.81;5048878;28;20189;-78
2022/03/20 00:32:43;;;;;;;23.03;15.33;;;;;;;4.94;97.48;100445.88;5046318;28;20212;-78
2022/03/20 00:35:11;;;;;;;23.97;15.17;;;;;;;4.87;96.26;100450.38;5049971;28;20193;-78
2022/03/20 00:37:40;;;;;;;23.37;14.57;;;;;;;5.06;95.95;100429.00;5044157;28;20227;-78
2022/03/20 00:40:09;;;;;;;20.57;14.93;;;;;;;5.04;96.17;100430.81;5045524;28;20220;-78
2022/03/20 00:42:38;;;;;;;25.10;15.53;;;;;;;4.94;96.58;100438.00;5027402;28;20208;-78
2022/03/20 00:45:09;;;;;;;27.57;14.77;;;;;;;4.92;97.01;100434.53;4997585;28;20226;-78
2022/03/20 00:47:40;;;;;;;22.93;14.13;;;;;;;4.79;97.56;100428.66;4984367;28;20187;-76
2022/03/20 00:50:09;;;;;;;24.57;15.53;;;;;;;4.89;97.47;100427.59;5053530;28;20272;-76
2022/03/20 00:52:38;;;;;;;18.93;13.60;;;;;;;5.06;96.66;100422.00;5048215;28;20197;-76
2022/03/20 00:55:07;;;;;;;21.60;14.67;;;;;;;5.04;96.63;100415.91;5043852;28;20201;-76
2022/03/20 00:57:36;;;;;;;23.37;15.10;;;;;;;5.13;96.22;100415.72;5045269;28;20193;-76
2022/03/20 01:00:05;;;;;;;21.90;15.10;;;;;;;5.08;96.66;100411.44;5016785;28;20734;-76
2022/03/20 01:02:39;;;;;;;22.63;15.03;;;;;;;5.13;96.64;100413.09;5049011;28;20193;-76
2022/03/20 01:05:09;;;;;;;21.50;14.80;;;;;;;5.04;96.35;100418.53;5029499;28;20217;-76
2022/03/20 01:07:38;;;;;;;21.07;14.70;;;;;;;5.01;95.97;100401.97;5008762;28;20201;-77
2022/03/20 01:10:09;;;;;;;22.43;15.80;;;;;;;4.99;96.37;100401.13;4938537;29;20204;-76
2022/03/20 01:12:38;;;;;;;21.23;15.07;;;;;;;5.05;96.03;100401.03;4928793;29;20255;-77
2022/03/20 01:15:10;;;;;;;22.20;15.33;;;;;;;5.13;95.51;100399.97;4938480;28;20235;-77
2022/03/20 01:17:47;;;;;;;25.47;16.20;;;;;;;4.93;94.93;100393.41;4939798;28;20200;-77
2022/03/20 01:20:16;;;;;;;23.23;14.20;;;;;;;4.92;96.61;100389.03;4992702;28;20271;-77
2022/03/20 01:22:45;;;;;;;22.57;15.50;;;;;;;4.87;96.53;100391.78;4999701;28;20671;-77
2022/03/20 01:25:20;;;;;;;21.57;15.13;;;;;;;4.95;96.45;100376.72;5030810;28;20217;-77
2022/03/20 01:27:48;;;;;;;22.50;15.37;;;;;;;4.93;96.85;100385.53;5012931;28;20241;-77
2022/03/20 01:30:17;;;;;;;24.50;15.20;;;;;;;5.09;95.09;100382.53;4970897;28;20203;-77
2022/03/20 01:32:50;;;;;;;24.83;15.67;;;;;;;4.95;96.00;100379.34;4969992;28;20192;-77
2022/03/20 01:35:18;;;;;;;26.00;15.73;;;;;;;4.90;95.24;100378.56;4970680;28;20247;-77
2022/03/20 01:37:46;;;;;;;24.73;15.30;;;;;;;4.88;94.79;100380.38;4972738;28;20396;-76
2022/03/20 01:40:16;;;;;;;24.53;15.90;;;;;;;5.03;93.92;100376.56;4983389;28;20230;-76
2022/03/20 01:42:49;;;;;;;21.90;15.07;;;;;;;4.95;94.04;100362.72;4961257;28;20219;-77
2022/03/20 01:45:23;;;;;;;24.17;15.23;;;;;;;5.06;93.91;100365.97;4994351;28;20218;-77
2022/03/20 01:47:54;;;;;;;24.23;15.23;;;;;;;5.06;93.98;100369.47;5003133;28;20204;-78
2022/03/20 01:50:24;;;;;;;27.00;16.53;;;;;;;5.04;92.24;100362.53;4981197;28;20689;-76
2022/03/20 01:52:54;;;;;;;23.33;15.00;;;;;;;5.05;93.52;100365.13;4977926;28;20204;-77
2022/03/20 01:55:28;;;;;;;23.50;16.20;;;;;;;5.05;94.12;100366.88;4984750;28;20207;-77
2022/03/20 01:57:58;;;;;;;23.67;15.60;;;;;;;4.86;94.63;100358.53;4988432;28;20254;-77
2022/03/20 02:00:32;;;;;;;25.97;16.10;;;;;;;4.82;94.78;100359.47;4983670;28;20192;-78
2022/03/20 02:03:03;;;;;;;23.53;15.73;;;;;;;4.95;93.83;100352.22;4977851;28;20283;-77
2022/03/20 02:05:32;;;;;;;21.57;15.20;;;;;;;4.91;93.86;100355.81;4983986;28;20222;-78
2022/03/20 02:08:02;;;;;;;23.17;15.43;;;;;;;4.85;94.66;100354.19;4982185;28;20200;-78
2022/03/20 02:10:35;;;;;;;24.17;15.67;;;;;;;4.82;95.26;100349.84;4972547;28;20196;-78
2022/03/20 02:13:05;;;;;;;24.80;15.80;;;;;;;4.97;95.21;100356.53;5049373;28;20291;-78
2022/03/20 02:15:34;;;;;;;25.67;15.83;;;;;;;4.96;95.75;100353.97;5047836;28;20200;-78
2022/03/20 02:18:07;;;;;;;22.90;16.00;;;;;;;4.96;94.70;100340.84;5045452;28;20243;-78
2022/03/20 02:20:36;;;;;;;22.70;15.67;;;;;;;4.93;93.91;100344.41;5051603;28;20194;-78
2022/03/20 02:23:06;;;;;;;25.80;16.50;;;;;;;4.73;95.23;100342.19;5048222;28;20201;-78
2022/03/20 02:25:38;;;;;;;23.17;15.47;;;;;;;4.93;94.88;100341.78;5048971;28;20213;-78
2022/03/20 02:28:07;;;;;;;21.90;15.27;;;;;;;4.92;95.46;100336.53;5047900;28;20209;-78
2022/03/20 02:30:35;;;;;;;23.07;15.37;;;;;;;4.95;96.05;100326.84;5028546;28;20204;-78
2022/03/20 02:33:04;;;;;;;24.33;15.03;;;;;;;4.89;95.03;100325.19;4982378;28;20211;-78
2022/03/20 02:35:33;;;;;;;22.80;15.57;;;;;;;4.89;94.85;100326.97;4990570;28;20261;-78
2022/03/20 02:38:02;;;;;;;23.87;15.60;;;;;;;4.66;96.33;100322.22;4980673;28;20203;-78
2022/03/20 02:40:32;;;;;;;25.80;15.93;;;;;;;4.62;95.72;100314.44;4990106;28;20226;-78
2022/03/20 02:43:04;;;;;;;22.50;15.37;;;;;;;4.60;95.23;100315.34;4990591;28;20191;-78
2022/03/20 02:45:34;;;;;;;26.63;15.93;;;;;;;4.60;97.21;100314.47;4987040;28;20250;-78
2022/03/20 02:48:05;;;;;;;22.97;15.10;;;;;;;4.62;97.28;100312.66;4931824;29;20205;-79
2022/03/20 02:50:35;;;;;;;24.07;15.03;;;;;;;4.49;96.91;100319.94;4931497;29;20209;-78
2022/03/20 02:53:09;;;;;;;23.40;14.90;;;;;;;4.68;96.07;100315.19;4944652;28;20254;-78
2022/03/20 02:55:41;;;;;;;22.87;15.60;;;;;;;4.55;96.97;100325.06;4983016;28;20241;-78
2022/03/20 02:58:13;;;;;;;21.33;15.90;;;;;;;4.49;97.28;100322.56;4989941;28;20195;-78
2022/03/20 03:00:43;;;;;;;23.00;15.73;;;;;;;4.53;96.81;100318.97;4927977;28;20191;-78
2022/03/20 03:03:12;;;;;;;24.13;15.57;;;;;;;4.49;97.49;100317.31;4992151;28;20231;-78
2022/03/20 03:05:43;;;;;;;23.33;16.23;;;;;;;4.40;98.65;100320.13;4982903;28;20226;-78
2022/03/20 03:11:01;;;;;;;23.50;16.07;;;;;;;4.30;99.51;100329.06;4971779;28;20363;-78
2022/03/20 03:13:34;;;;;;;24.73;15.73;;;;;;;4.15;99.83;100321.50;4983454;28;20261;-78
2022/03/20 03:16:07;;;;;;;24.40;16.90;;;;;;;4.18;100.00;100314.44;4979651;28;20689;-77
2022/03/20 03:18:37;;;;;;;22.57;15.93;;;;;;;4.01;100.00;100314.75;4971877;28;20200;-77
2022/03/20 03:21:06;;;;;;;26.53;16.40;;;;;;;4.20;100.00;100315.28;4976881;28;20268;-78
2022/03/20 03:23:36;;;;;;;24.77;16.67;;;;;;;4.10;100.00;100310.25;4970261;28;20192;-77
2022/03/20 03:26:06;;;;;;;25.70;16.37;;;;;;;4.12;100.00;100311.94;5037192;28;20227;-77
2022/03/20 03:28:40;;;;;;;22.93;16.27;;;;;;;3.93;100.00;100311.41;4978462;28;20673;-78
2022/03/20 03:31:11;;;;;;;21.97;16.27;;;;;;;4.20;100.00;100315.28;4984375;28;20233;-77
2022/03/20 03:35:41;;;;;;;26.20;16.73;;;;;;;4.25;100.00;100302.09;4984016;28;20279;-78
2022/03/20 03:36:31;;;;;;;25.73;16.03;;;;;;;4.16;100.00;100303.13;5013842;28;20198;-77
2022/03/20 03:39:01;;;;;;;23.33;16.20;;;;;;;4.16;100.00;100302.28;5009815;28;20198;-77
2022/03/20 03:41:32;;;;;;;23.87;15.67;;;;;;;4.18;100.00;100290.84;4992611;28;20261;-77
2022/03/20 03:44:05;;;;;;;24.53;16.50;;;;;;;4.01;100.00;100295.56;4991838;28;20195;-77
2022/03/20 03:46:37;;;;;;;23.70;16.20;;;;;;;3.94;100.00;100294.78;4973850;28;20242;-77
2022/03/20 03:49:06;;;;;;;23.13;16.67;;;;;;;3.79;100.00;100284.63;4980164;28;20282;-77
2022/03/20 03:51:35;;;;;;;23.53;15.70;;;;;;;3.99;100.00;100292.97;4988392;28;20638;-77
2022/03/20 03:54:06;;;;;;;22.93;15.93;;;;;;;4.01;100.00;100288.56;4972398;28;20228;-77
2022/03/20 03:56:37;;;;;;;22.83;15.47;;;;;;;3.94;100.00;100299.16;4988817;28;20246;-77
2022/03/20 03:59:10;;;;;;;23.57;15.97;;;;;;;3.92;100.00;100285.25;4953244;28;20195;-77
2022/03/20 04:01:45;;;;;;;24.37;16.40;;;;;;;3.84;100.00;100287.13;4951165;28;20200;-77
2022/03/20 04:04:14;;;;;;;22.20;15.37;;;;;;;3.83;100.00;100283.66;4909399;29;20225;-78
2022/03/20 04:06:43;;;;;;;26.30;16.77;;;;;;;3.94;100.00;100275.59;4908976;29;20276;-78
2022/03/20 04:09:13;;;;;;;25.70;16.23;;;;;;;3.86;100.00;100274.84;4901629;29;20205;-78
2022/03/20 04:11:43;;;;;;;23.00;16.30;;;;;;;3.88;100.00;100273.97;4914187;29;20827;-77
2022/03/20 04:14:12;;;;;;;24.40;15.27;;;;;;;3.91;100.00;100276.50;4922190;29;20204;-77
2022/03/20 04:16:40;;;;;;;25.93;16.80;;;;;;;3.91;100.00;100273.03;4873798;29;20226;-78
2022/03/20 04:19:10;;;;;;;24.93;15.83;;;;;;;3.76;100.00;100262.81;4916325;29;20225;-78
2022/03/20 04:21:39;;;;;;;25.93;15.87;;;;;;;3.93;100.00;100266.00;4917933;29;20219;-78
2022/03/20 04:24:09;;;;;;;27.63;17.03;;;;;;;3.86;100.00;100267.00;4868503;29;20198;-78
2022/03/20 04:26:37;;;;;;;26.40;17.43;;;;;;;3.59;100.00;100265.78;4889349;29;20231;-78
2022/03/20 04:29:08;;;;;;;25.70;17.50;;;;;;;3.71;100.00;100271.66;4911379;29;20339;-77
2022/03/20 04:31:37;;;;;;;25.17;16.80;;;;;;;3.75;100.00;100272.44;4914046;29;20198;-78
2022/03/20 04:34:08;;;;;;;25.90;16.67;;;;;;;3.62;100.00;100266.56;4914632;29;20209;-78
2022/03/20 04:36:38;;;;;;;24.50;17.27;;;;;;;3.79;100.00;100271.50;4970456;28;20206;-78
2022/03/20 04:39:07;;;;;;;25.47;16.93;;;;;;;3.76;100.00;100271.53;4970935;28;20663;-77
2022/03/20 04:41:36;;;;;;;25.77;16.17;;;;;;;3.82;100.00;100271.44;4968594;28;20202;-78
2022/03/20 04:44:12;;;;;;;26.20;17.33;;;;;;;3.85;100.00;100262.66;4971544;28;20191;-78
2022/03/20 04:46:42;;;;;;;28.23;18.20;;;;;;;3.87;100.00;100272.25;4967234;28;20216;-78
2022/03/20 05:00:20;;;;;;;26.13;16.93;;;;;;;3.94;100.00;100279.06;5013146;28;20198;-79
2022/03/20 05:02:49;;;;;;;23.37;17.70;;;;;;;4.04;100.00;100271.88;5012894;28;20295;-77
2022/03/20 05:05:18;;;;;;;26.77;17.93;;;;;;;3.94;100.00;100276.44;5010840;28;20249;-78
2022/03/20 05:07:47;;;;;;;25.97;17.80;;;;;;;3.97;100.00;100278.16;5006327;28;20288;-78
2022/03/20 05:15:49;;;;;;;26.60;17.30;;;;;;;3.97;100.00;100280.78;5010590;28;20333;-78
2022/03/20 05:18:19;;;;;;;29.20;18.00;;;;;;;3.91;100.00;100280.91;4969201;28;20223;-78
2022/03/20 05:20:47;;;;;;;25.47;17.83;;;;;;;3.92;100.00;100272.13;4974104;28;20191;-78
2022/03/20 05:23:16;;;;;;;26.33;18.50;;;;;;;3.97;100.00;100278.16;4970407;28;20187;-78
2022/03/20 05:25:44;;;;;;;27.53;18.40;;;;;;;4.02;100.00;100271.06;4929335;29;20260;-79
2022/03/20 05:28:15;;;;;;;28.07;18.80;;;;;;;4.09;100.00;100283.16;4948713;28;20271;-78
2022/03/20 05:30:45;;;;;;;29.67;17.97;;;;;;;3.89;100.00;100269.59;4939303;28;20204;-78
2022/03/20 05:33:16;;;;;;;27.17;17.27;;;;;;;4.00;100.00;100263.22;4956409;28;20288;-78
2022/03/20 05:35:50;;;;;;;26.83;18.43;;;;;;;3.83;100.00;100259.19;4978184;28;20190;-78
2022/03/20 05:38:19;;;;;;;27.50;17.57;;;;;;;3.82;100.00;100249.63;4923089;29;20223;-78
2022/03/20 05:40:47;;;;;;;26.97;18.47;;;;;;;3.80;100.00;100246.16;4917621;28;20224;-78
2022/03/20 05:43:18;;;;;;;27.80;18.23;;;;;;;3.60;100.00;100251.78;4904459;29;20200;-78
2022/03/20 05:45:49;;;;;;;27.17;17.93;;;;;;;3.59;100.00;100242.19;4946197;28;20704;-78
2022/03/20 05:48:20;;;;;;;27.97;18.63;;;;;;;3.43;100.00;100236.34;4952871;28;20220;-78
2022/03/20 05:50:51;;;;;;;27.30;17.97;;;;;;;3.42;100.00;100238.09;4989783;28;20542;-78
2022/03/20 05:53:19;;;;;;;28.53;19.13;;;;;;;3.56;100.00;100239.59;5011254;28;20190;-78
2022/03/20 05:58:34;;;;;;;24.83;17.37;;;;;;;3.68;100.00;100239.41;4972932;28;20297;-77
2022/03/20 06:01:04;;;;;;;29.70;19.33;;;;;;;3.90;100.00;100237.25;4982848;28;20198;-78
2022/03/20 06:03:35;;;;;;;28.43;18.90;;;;;;;4.05;100.00;100239.53;4980088;28;20198;-78
2022/03/20 06:06:06;;;;;;;27.70;19.13;;;;;;;4.19;100.00;100249.75;4983173;28;20196;-78
2022/03/20 06:08:36;;;;;;;31.03;19.97;;;;;;;4.39;100.00;100263.31;4981986;28;20310;-78
2022/03/20 06:11:05;;;;;;;31.63;19.13;;;;;;;4.54;100.00;100260.38;4983310;28;20189;-78
2022/03/20 06:13:37;;;;;;;30.83;19.00;;;;;;;4.64;100.00;100253.19;4977994;28;20241;-78
2022/03/20 06:16:08;;;;;;;28.97;19.53;;;;;;;4.60;100.00;100249.75;5019632;28;20226;-79
2022/03/20 06:18:40;;;;;;;28.50;19.37;;;;;;;4.50;100.00;100256.09;4980852;28;20192;-78
2022/03/20 06:21:11;;;;;;;27.30;19.10;;;;;;;4.68;100.00;100259.22;4978374;28;20203;-78
2022/03/20 06:23:42;;;;;;;29.63;20.07;;;;;;;4.50;100.00;100263.09;4982946;28;20257;-78
2022/03/20 06:26:11;;;;;;;31.50;19.87;;;;;;;4.70;100.00;100253.03;4984498;28;20207;-78
2022/03/20 06:28:41;;;;;;;28.37;19.63;;;;;;;4.83;100.00;100241.38;5037805;28;20211;-78
2022/03/20 06:31:10;;;;;;;34.40;19.83;;;;;;;4.82;100.00;100242.22;4982901;28;20195;-78
2022/03/20 06:33:58;;;;;;;32.67;21.13;;;;;;;4.92;100.00;100250.75;4984690;28;20249;-78
2022/03/20 06:36:26;;;;;;;31.80;20.70;;;;;;;5.15;100.00;100250.22;4979377;28;20192;-78
2022/03/20 06:38:56;;;;;;;33.23;20.57;;;;;;;5.17;100.00;100249.28;4983553;28;20222;-78
2022/03/20 06:41:24;;;;;;;31.30;20.40;;;;;;;5.29;100.00;100250.75;4941042;28;20205;-78
2022/03/20 06:43:53;;;;;;;31.97;21.50;;;;;;;5.31;100.00;100250.72;4930958;29;20194;-78
2022/03/20 06:46:21;;;;;;;33.07;22.03;;;;;;;5.40;100.00;100250.47;4932112;28;20209;-78
2022/03/20 06:48:53;;;;;;;31.30;20.90;;;;;;;5.44;100.00;100246.88;4979411;28;20272;-78
2022/03/20 06:51:24;;;;;;;30.73;21.83;;;;;;;5.28;100.00;100246.38;5009185;28;20197;-78
2022/03/20 06:53:53;;;;;;;31.23;21.40;;;;;;;5.55;100.00;100236.09;5009056;28;20198;-78
2022/03/20 06:56:23;;;;;;;32.27;21.60;;;;;;;5.71;100.00;100242.69;5008962;28;20226;-79
2022/03/20 06:58:52;;;;;;;30.33;20.77;;;;;;;5.77;100.00;100247.75;5007895;28;20198;-78
2022/03/20 07:01:21;;;;;;;30.63;21.13;;;;;;;5.89;100.00;100246.59;5008799;28;20200;-79
2022/03/20 07:03:50;;;;;;;31.60;21.97;;;;;;;6.08;100.00;100250.47;5003793;28;20649;-79
2022/03/20 07:06:26;;;;;;;34.57;22.33;;;;;;;6.07;100.00;100253.97;4995784;28;20203;-78
2022/03/20 07:09:00;;;;;;;35.67;23.10;;;;;;;6.21;100.00;100261.47;4939842;28;20221;-78
2022/03/20 07:11:32;;;;;;;33.70;23.87;;;;;;;6.40;100.00;100273.19;4913847;28;20256;-78
2022/03/20 07:14:03;;;;;;;37.60;24.27;;;;;;;6.57;100.00;100263.06;4922595;29;20233;-78
2022/03/20 07:16:33;;;;;;;34.60;23.30;;;;;;;6.87;100.00;100270.94;4821086;29;20206;-79
2022/03/20 07:19:02;;;;;;;36.23;24.03;;;;;;;7.14;100.00;100277.06;4812717;29;20205;-79
2022/03/20 07:21:37;;;;;;;34.17;24.33;;;;;;;7.25;100.00;100282.03;4789329;29;20274;-79
2022/03/20 07:24:08;;;;;;;31.67;23.20;;;;;;;7.40;98.64;100274.47;4782007;29;20206;-78
2022/03/20 07:29:32;;;;;;;37.17;24.17;;;;;;;7.33;96.52;100287.88;4798718;29;20228;-78
2022/03/20 07:32:06;;;;;;;35.03;23.67;;;;;;;7.44;96.90;100285.78;4820933;29;20245;-78
2022/03/20 07:34:35;;;;;;;36.10;24.67;;;;;;;7.42;95.37;100277.03;4803151;29;20213;-78
2022/03/20 07:37:06;;;;;;;35.73;23.47;;;;;;;7.34;95.10;100271.19;4801233;29;20194;-78
2022/03/20 07:39:36;;;;;;;34.90;22.80;;;;;;;7.39;94.26;100264.84;4823965;29;20242;-77
2022/03/20 07:42:05;;;;;;;35.53;24.00;;;;;;;7.38;94.63;100278.06;4961966;28;20210;-78
2022/03/20 07:44:36;;;;;;;35.50;23.67;;;;;;;7.46;94.38;100265.50;4993077;28;20642;-78
2022/03/20 07:47:08;;;;;;;35.00;23.67;;;;;;;7.44;94.10;100268.19;4994694;28;20191;-78
2022/03/20 07:49:39;;;;;;;32.80;22.90;;;;;;;7.50;94.49;100267.09;4995241;28;20219;-78
2022/03/20 07:52:08;;;;;;;36.10;22.87;;;;;;;7.56;94.51;100258.16;4994973;28;20230;-78
2022/03/20 07:54:38;;;;;;;36.43;24.10;;;;;;;7.55;93.46;100238.84;4983997;28;20198;-78
2022/03/20 07:57:07;;;;;;;35.77;24.10;;;;;;;7.60;94.08;100254.47;4990508;28;20275;-79
2022/03/20 07:59:38;;;;;;;30.70;22.47;;;;;;;7.71;92.82;100255.81;4918849;29;20198;-78
2022/03/20 08:02:08;;;;;;;34.47;23.47;;;;;;;7.66;92.86;100246.38;4895705;29;20202;-78
2022/03/20 08:04:40;;;;;;;35.00;23.73;;;;;;;7.84;92.46;100248.38;4915555;28;20194;-78
2022/03/20 08:07:09;;;;;;;39.23;24.37;;;;;;;7.95;92.07;100248.84;4909941;29;20198;-79
2022/03/20 08:09:39;;;;;;;34.30;22.77;;;;;;;8.19;91.22;100246.22;4916313;28;20708;-79
2022/03/20 08:12:10;;;;;;;33.03;23.57;;;;;;;8.31;90.94;100251.06;4910548;29;20194;-79
2022/03/20 08:14:59;;;;;;;34.70;24.07;;;;;;;8.53;90.34;100248.50;4914984;28;20252;-79
2022/03/20 08:17:45;;;;;;;33.13;24.03;;;;;;;8.67;89.58;100247.97;4931892;28;20209;-79
2022/03/20 08:20:14;;;;;;;38.07;23.77;;;;;;;8.57;87.94;100258.03;5019596;28;20225;-79
2022/03/20 08:22:46;;;;;;;32.27;23.17;;;;;;;8.53;86.10;100246.72;4952514;28;20216;-79
2022/03/20 08:25:19;;;;;;;32.60;22.03;;;;;;;8.72;86.26;100241.59;4952628;28;20197;-78
2022/03/20 08:27:49;;;;;;;35.27;23.57;;;;;;;8.74;85.93;100245.03;4954220;28;20204;-79
2022/03/20 08:30:18;;;;;;;30.03;22.10;;;;;;;8.74;85.33;100236.25;4962187;28;20243;-79
2022/03/20 08:32:48;;;;;;;36.60;23.53;;;;;;;8.71;84.41;100244.31;4954975;28;20196;-79
2022/03/20 08:35:19;;;;;;;32.93;23.03;;;;;;;8.80;83.73;100254.50;4958240;28;20205;-78
2022/03/20 08:37:50;;;;;;;32.67;23.43;;;;;;;8.72;83.55;100254.81;5049422;28;20205;-79
2022/03/20 08:40:21;;;;;;;32.40;23.20;;;;;;;8.83;83.53;100262.31;4994629;28;20234;-78
2022/03/20 08:42:53;;;;;;;34.37;23.20;;;;;;;9.01;83.61;100263.38;4997084;28;20211;-79
2022/03/20 08:45:23;;;;;;;35.47;24.13;;;;;;;9.04;85.49;100260.59;5003103;28;20207;-78
2022/03/20 08:47:52;;;;;;;32.00;23.30;;;;;;;9.23;84.17;100258.94;4994493;28;20218;-79
2022/03/20 08:50:20;;;;;;;32.33;23.10;;;;;;;9.44;83.77;100257.19;4963780;28;20219;-79
2022/03/20 08:52:53;;;;;;;33.47;24.03;;;;;;;9.49;82.33;100252.56;4988540;28;20282;-79
2022/03/20 08:55:27;;;;;;;32.50;23.07;;;;;;;9.51;80.69;100257.78;4972135;28;20217;-78
2022/03/20 08:57:55;;;;;;;33.17;23.77;;;;;;;9.56;81.66;100251.41;4921762;28;20197;-79
2022/03/20 09:00:25;;;;;;;33.20;22.70;;;;;;;9.52;80.17;100259.50;4958630;28;20266;-78
2022/03/20 09:02:54;;;;;;;31.03;22.53;;;;;;;9.50;80.06;100253.44;4954418;28;20200;-79
2022/03/20 09:05:25;;;;;;;34.37;23.07;;;;;;;9.52;80.23;100251.56;5012946;28;20664;-78
2022/03/20 09:07:57;;;;;;;32.57;22.27;;;;;;;9.48;79.49;100255.28;5007932;28;20202;-78
2022/03/20 09:10:28;;;;;;;32.60;23.23;;;;;;;9.67;79.64;100253.59;5013632;28;20220;-78
2022/03/20 09:13:00;;;;;;;34.10;23.47;;;;;;;9.58;78.38;100264.56;4995146;28;20202;-78
2022/03/20 09:15:31;;;;;;;31.83;22.73;;;;;;;9.75;78.57;100268.22;4978859;28;20191;-78
2022/03/20 09:20:50;;;;;;;32.77;23.07;;;;;;;10.08;78.32;100253.56;5012855;28;20198;-78
2022/03/20 09:23:20;;;;;;;32.80;22.73;;;;;;;10.26;78.26;100258.94;4971552;28;20213;-79
2022/03/20 09:25:53;;;;;;;34.53;23.23;;;;;;;10.07;75.47;100270.38;4914619;28;20202;-78
2022/03/20 09:28:22;;;;;;;35.60;23.03;;;;;;;9.96;75.43;100266.41;4912983;29;20198;-79
2022/03/20 09:30:50;;;;;;;33.23;22.27;;;;;;;10.07;75.25;100268.59;4918137;28;20226;-79
2022/03/20 09:33:21;;;;;;;29.97;22.73;;;;;;;10.30;74.37;100270.25;4911316;29;20206;-79
2022/03/20 09:35:50;;;;;;;36.13;23.33;;;;;;;10.32;73.85;100268.38;4917151;28;20202;-78
2022/03/20 09:38:20;;;;;;;31.60;22.80;;;;;;;10.43;73.16;100271.41;4896638;28;20229;-79
2022/03/20 09:40:51;;;;;;;32.27;23.63;;;;;;;10.26;73.88;100273.97;4895829;29;20245;-78
2022/03/20 09:43:22;;;;;;;34.30;23.50;;;;;;;10.74;73.14;100280.59;4893750;28;20273;-79
2022/03/20 09:45:54;;;;;;;31.20;23.17;;;;;;;10.71;72.67;100273.66;4891943;29;20292;-78
2022/03/20 09:48:24;;;;;;;33.20;23.33;;;;;;;10.69;71.08;100280.81;4964980;28;20192;-79
2022/03/20 09:50:54;;;;;;;30.63;22.43;;;;;;;11.15;71.01;100279.47;4971041;28;20746;-79
2022/03/20 09:53:23;;;;;;;31.83;23.00;;;;;;;11.25;69.54;100281.69;4963994;28;20214;-79
2022/03/20 09:55:57;;;;;;;30.83;22.77;;;;;;;11.20;70.06;100275.78;4976325;28;20201;-79
2022/03/20 09:58:28;;;;;;;31.10;23.37;;;;;;;11.21;69.04;100285.44;4991600;28;20260;-78
2022/03/20 10:00:57;;;;;;;35.13;23.47;;;;;;;11.19;68.79;100280.19;4987828;28;20199;-78
2022/03/20 10:03:27;;;;;;;31.47;22.13;;;;;;;11.45;68.15;100269.16;4989737;28;20342;-79
2022/03/20 10:06:15;;;;;;;31.30;22.60;;;;;;;11.49;68.79;100277.00;4950515;28;20213;-78
2022/03/20 10:09:05;;;;;;;31.07;22.87;;;;;;;12.00;68.32;100278.81;4956732;28;20220;-79
2022/03/20 10:11:36;;;;;;;34.27;23.53;;;;;;;12.17;68.30;100270.84;4965015;28;20216;-79
2022/03/20 10:14:11;;;;;;;31.47;22.20;;;;;;;11.97;65.31;100278.97;4965109;28;20278;-79
2022/03/20 10:16:42;;;;;;;31.07;24.00;;;;;;;11.68;66.75;100269.81;4953230;28;20202;-78
2022/03/20 10:19:35;;;;;;;31.33;23.13;;;;;;;11.79;66.54;100285.19;4957287;28;20250;-78
2022/03/20 10:22:07;;;;;;;33.67;23.90;;;;;;;12.02;65.15;100284.91;4953066;28;20321;-78
2022/03/20 10:24:38;;;;;;;34.30;23.87;;;;;;;12.14;65.58;100281.59;4998279;28;20204;-78
2022/03/20 10:27:13;;;;;;;31.47;23.20;;;;;;;12.09;64.64;100286.31;4954661;28;20200;-78
2022/03/20 10:29:55;;;;;;;33.63;23.63;;;;;;;12.21;64.50;100280.34;5032923;28;20226;-79
2022/03/20 10:32:25;;;;;;;30.70;22.80;;;;;;;12.44;65.58;100278.25;4952960;28;20212;-78
2022/03/20 10:34:58;;;;;;;33.40;22.83;;;;;;;12.44;64.21;100270.28;4960169;28;20254;-78
2022/03/20 10:37:47;;;;;;;33.50;24.77;;;;;;;12.67;63.56;100275.22;4953680;28;20197;-79
2022/03/20 10:40:17;;;;;;;31.97;23.27;;;;;;;12.58;63.57;100271.25;4962268;28;20228;-79
2022/03/20 10:43:11;;;;;;;30.77;23.60;;;;;;;12.59;63.80;100275.63;4970014;28;20204;-78
2022/03/20 10:45:52;;;;;;;29.93;22.73;;;;;;;12.85;64.79;100274.22;4984415;28;20211;-79
2022/03/20 10:48:30;;;;;;;30.30;22.57;;;;;;;13.14;64.67;100272.59;4980771;28;20196;-79
2022/03/20 10:50:59;;;;;;;32.40;23.37;;;;;;;13.41;62.94;100271.97;4978918;28;20305;-79
2022/03/20 10:53:28;;;;;;;32.13;23.23;;;;;;;13.44;61.69;100272.66;4978827;28;20743;-79
2022/03/20 10:56:06;;;;;;;31.63;23.53;;;;;;;13.41;61.53;100266.63;4977982;28;20278;-79
2022/03/20 10:58:39;;;;;;;33.17;23.57;;;;;;;13.38;61.10;100266.81;4978991;28;20343;-79
2022/03/20 11:01:09;;;;;;;31.30;23.00;;;;;;;13.61;60.92;100254.84;4983559;28;20202;-78
2022/03/20 11:03:39;;;;;;;31.97;24.00;;;;;;;13.66;60.74;100245.63;4972139;28;20192;-79
2022/03/20 11:06:09;;;;;;;32.10;24.40;;;;;;;13.27;61.63;100261.28;4971701;28;20221;-79
2022/03/20 11:08:38;;;;;;;29.33;22.77;;;;;;;13.95;61.83;100267.84;4979538;28;20192;-79
2022/03/20 11:11:08;;;;;;;32.63;23.57;;;;;;;13.82;60.83;100250.06;4953698;28;20242;-79
2022/03/20 11:13:40;;;;;;;32.40;24.40;;;;;;;13.96;60.72;100250.06;4978896;28;20200;-80
2022/03/20 11:16:10;;;;;;;31.70;23.43;;;;;;;13.94;60.37;100246.66;4982543;28;20220;-79
2022/03/20 11:18:40;;;;;;;30.40;22.93;;;;;;;14.19;61.98;100244.22;4984276;28;20246;-79
2022/03/20 11:21:10;;;;;;;29.43;22.10;;;;;;;14.47;60.36;100245.19;4981276;28;20200;-80
2022/03/20 11:23:40;;;;;;;31.33;23.17;;;;;;;14.33;59.77;100238.88;4970351;28;20214;-79
2022/03/20 11:26:10;;;;;;;28.67;22.47;;;;;;;14.54;59.40;100238.50;4982269;28;20214;-79
2022/03/20 11:28:48;;;;;;;32.27;23.33;;;;;;;14.85;58.03;100240.94;4975656;28;20192;-79
2022/03/20 11:31:17;;;;;;;29.70;22.03;;;;;;;14.82;58.76;100232.28;4981316;28;20219;-79
2022/03/20 11:33:46;;;;;;;28.83;22.20;;;;;;;14.86;58.65;100229.34;4980426;28;20196;-79
2022/03/20 11:36:17;;;;;;;31.17;22.40;;;;;;;15.16;58.31;100242.50;4978247;28;20231;-80
2022/03/20 11:39:09;;;;;;;30.60;22.63;;;;;;;15.44;58.06;100222.84;4982365;28;20371;-79
2022/03/20 11:41:37;;;;;;;28.20;22.10;;;;;;;15.64;57.63;100228.69;4976921;28;20228;-79
2022/03/20 11:44:20;;;;;;;29.37;22.53;;;;;;;15.75;57.42;100231.47;4983754;28;20199;-79
2022/03/20 11:47:20;;;;;;;30.60;22.63;;;;;;;15.68;58.14;100235.50;4978809;28;20196;-78
2022/03/20 11:50:13;;;;;;;30.67;21.87;;;;;;;15.76;58.28;100227.84;4977207;28;20202;-79
2022/03/20 11:52:49;;;;;;;26.80;20.93;;;;;;;15.98;57.99;100235.22;4977504;28;20224;-79
2022/03/20 11:55:35;;;;;;;27.47;20.87;;;;;;;15.64;57.34;100228.69;4971230;28;20206;-79
2022/03/20 11:58:06;;;;;;;30.63;22.53;;;;;;;15.54;57.46;100230.19;4970997;28;20207;-79